createdAt,value
2018-12-19T00:09:26.446Z,-3.61
2018-12-19T00:19:44.849Z,-3.41
2018-12-19T00:30:03.597Z,-3.35
2018-12-19T00:40:22.603Z,-3.53
2018-12-19T00:50:41.634Z,-3.67
2018-12-19T01:00:59.900Z,-3.11
2018-12-19T01:11:19.298Z,-3.35
2018-12-19T01:21:38.219Z,-3.46
2018-12-19T01:31:58.104Z,-3.83
2018-12-19T01:42:16.665Z,-3.69
2018-12-19T01:52:35.700Z,-3.49
2018-12-19T02:02:56.409Z,-3.45
2018-12-19T02:13:15.097Z,-3.65
2018-12-19T02:23:33.695Z,-3.67
2018-12-19T02:33:53.740Z,-3.33
2018-12-19T02:44:13.396Z,-3.26
2018-12-19T02:54:33.299Z,-3.07
2018-12-19T03:04:52.757Z,-2.95
2018-12-19T03:15:12.156Z,-2.52
2018-12-19T03:25:30.494Z,-2.27
2018-12-19T03:35:50.734Z,-2.80
2018-12-19T03:46:09.558Z,-2.88
2018-12-19T03:56:28.107Z,-2.81
2018-12-19T04:06:47.116Z,-2.75
2018-12-19T04:17:05.878Z,-2.49
2018-12-19T04:27:25.062Z,-2.36
2018-12-19T04:37:44.372Z,-2.16
2018-12-19T04:48:03.619Z,-2.16
2018-12-19T04:58:22.080Z,-2.04
2018-12-19T05:08:40.562Z,-1.96
2018-12-19T05:18:58.711Z,-1.86
2018-12-19T05:29:17.286Z,-1.79
2018-12-19T05:39:36.395Z,-1.79
2018-12-19T05:49:54.786Z,-1.80
2018-12-19T06:00:13.387Z,-1.85
2018-12-19T06:10:32.206Z,-1.67
2018-12-19T06:20:51.414Z,-1.61
2018-12-19T06:31:09.788Z,-1.63
2018-12-19T06:41:29.132Z,-1.54
2018-12-19T06:51:48.797Z,-1.68
2018-12-19T07:02:08.066Z,-1.52
2018-12-19T07:12:26.937Z,-1.42
2018-12-19T07:22:46.441Z,-1.32
2018-12-19T07:33:05.465Z,-1.55
2018-12-19T07:43:24.594Z,-1.59
2018-12-19T07:53:43.616Z,-1.49
2018-12-19T08:04:06.007Z,-1.31
2018-12-19T08:14:27.472Z,-1.35
2018-12-19T08:24:46.220Z,-1.52
2018-12-19T08:35:12.123Z,-1.47
2018-12-19T08:57:38.859Z,-0.60
2018-12-19T09:07:57.538Z,-0.37
2018-12-19T09:18:16.599Z,-0.13
2018-12-19T09:28:38.735Z,0.21
2018-12-19T09:38:57.300Z,0.52
2018-12-19T09:49:16.763Z,0.65
2018-12-19T09:59:35.879Z,0.63
2018-12-19T10:09:55.512Z,0.90
2018-12-19T10:20:15.002Z,1.02
2018-12-19T10:30:47.628Z,1.27
2018-12-19T10:41:05.998Z,1.46
2018-12-19T10:51:26.068Z,1.58
2018-12-19T11:01:44.957Z,1.20
2018-12-19T11:12:05.124Z,1.52
2018-12-19T11:22:23.955Z,1.82
2018-12-19T11:32:43.050Z,2.16
2018-12-19T11:43:02.451Z,1.85
2018-12-19T11:53:22.089Z,1.82
2018-12-19T12:03:40.519Z,2.03
2018-12-19T12:13:59.509Z,2.44
2018-12-19T12:24:19.395Z,2.28
2018-12-19T12:34:38.369Z,1.51
2018-12-19T12:44:57.581Z,0.61
2018-12-19T12:55:16.781Z,1.20
2018-12-19T13:05:36.089Z,1.24
2018-12-19T13:15:55.805Z,1.25
2018-12-19T13:26:16.038Z,1.03
2018-12-19T13:36:35.896Z,0.96
2018-12-19T13:46:55.059Z,0.91
2018-12-19T13:57:13.555Z,0.91
2018-12-19T14:07:32.389Z,0.87
2018-12-19T14:17:51.214Z,0.83
2018-12-19T14:28:10.071Z,0.58
2018-12-19T14:38:29.598Z,0.52
2018-12-19T14:48:48.704Z,0.21
2018-12-19T14:59:07.427Z,-0.08
2018-12-19T15:09:26.470Z,-0.47
2018-12-19T15:19:45.204Z,-0.81
2018-12-19T15:30:04.591Z,-0.80
2018-12-19T15:40:23.912Z,-0.87
2018-12-19T15:50:43.107Z,-1.00
2018-12-19T16:01:02.684Z,-1.02
2018-12-19T16:11:21.647Z,-0.95
2018-12-19T16:21:41.147Z,-0.92
2018-12-19T16:32:00.599Z,-0.79
2018-12-19T16:42:21.035Z,-0.90
2018-12-19T16:52:41.234Z,-0.82
2018-12-19T17:03:01.002Z,-0.84
2018-12-19T17:13:19.777Z,-0.82
2018-12-19T17:23:49.712Z,-0.70
2018-12-19T17:45:23.127Z,-0.48
2018-12-19T17:55:42.101Z,-0.35
2018-12-19T18:06:08.479Z,-0.28
2018-12-19T18:28:06.861Z,-0.16
2018-12-19T18:38:26.784Z,-0.18
2018-12-19T18:49:05.112Z,-0.13
2018-12-19T18:59:22.929Z,-0.06
2018-12-19T19:09:43.795Z,-0.22
2018-12-19T19:20:03.811Z,-0.09
2018-12-19T19:30:24.609Z,-0.14
2018-12-19T19:40:43.466Z,-0.06
2018-12-19T19:51:04.920Z,-0.05
2018-12-19T20:01:24.047Z,-0.10
2018-12-19T20:11:42.999Z,-0.08
2018-12-19T20:22:01.820Z,-0.07
2018-12-19T20:32:21.101Z,0.05
2018-12-19T20:42:40.563Z,0.05
2018-12-19T20:52:59.898Z,0.06
2018-12-19T21:03:18.913Z,0.13
2018-12-19T21:13:38.036Z,0.12
2018-12-19T21:23:57.200Z,0.11
2018-12-19T21:34:16.518Z,0.10
2018-12-19T21:44:35.327Z,0.11
2018-12-19T21:54:55.030Z,-0.16
2018-12-19T22:05:13.715Z,-0.30
2018-12-19T22:15:32.940Z,-0.09
2018-12-19T22:25:56.671Z,-0.12
2018-12-19T22:36:15.881Z,-0.17
2018-12-19T22:46:35.316Z,-0.06
2018-12-19T22:56:55.742Z,-0.08
2018-12-19T23:07:14.346Z,-0.36
2018-12-19T23:17:42.619Z,-0.24
2018-12-19T23:28:21.799Z,-0.12
2018-12-19T23:38:42.708Z,-0.11
